Terminal Aerodrome Forecast
Issued by NWS

Home | Current Version | Previous Version | Graphics & Text | Print | Product List | Glossary On
Versions: 1 2 3 4 5 6 7 8 9 10 11 12 13 14
218
FTUS43 KICT 211138
TAFHUT
TAF
KHUT 211138Z 2112/2212 21017KT 6SM -RA SCT150 OVC250
      TEMPO 2112/2114 VRB22G30KT 4SM TSRA BKN080CB
     FM211400 20013KT P6SM SCT130 OVC200
     FM211700 19017KT P6SM BKN150
     FM212200 19007KT P6SM VCTS OVC080CB=

USA.gov is the U.S. government's official web portal to all federal, state and local government web resources and services.